WZZ5PA LIME-LEIB
Flight info
| Callsign | WZZ5PA |
|---|---|
| Flight time | 1h 13m |
| Altitude | 35000 |
| Route | VOG DCT GEKBA DCT VAMTU DCT KOLON DCT GANGU DCT PADKO DCT VATIR N852 PIVUS Z237 SULID DCT DIMIB DCT POS |
| Aircraft | A320/M-SDE3FGHIRWY/LB1 |
Departure
| Time | 2026-05-07 17:01 |
|---|---|
| Airport | Il Caravaggio International Airport (LIME) |
Arrival
| Time | 2026-05-07 18:15 |
|---|---|
| Airport | Ibiza Airport (LEIB) |
| Time | Latitude | Longitude | Altitude | Speed | Heading |
|---|---|---|---|---|---|
| 2026-05-07 16:20 | 45.66613 | 9.70169 | 788 ft | 0 kts | 195° |
| 2026-05-07 16:47 | 45.66629 | 9.70175 | 787 ft | 4 kts | 195° |
| 2026-05-07 16:47 | 45.66655 | 9.70185 | 787 ft | 4 kts | 195° |
| 2026-05-07 16:47 | 45.66677 | 9.70193 | 787 ft | 4 kts | 190° |
| 2026-05-07 16:47 | 45.66700 | 9.70191 | 787 ft | 4 kts | 139° |
| 2026-05-07 16:48 | 45.66713 | 9.70161 | 787 ft | 3 kts | 105° |
| 2026-05-07 16:48 | 45.66714 | 9.70156 | 787 ft | 0 kts | 105° |
| 2026-05-07 16:51 | 45.66714 | 9.70157 | 787 ft | 0 kts | 105° |
| 2026-05-07 16:52 | 45.66713 | 9.70161 | 787 ft | 1 kts | 105° |
| 2026-05-07 16:52 | 45.66709 | 9.70183 | 787 ft | 3 kts | 105° |
| 2026-05-07 16:53 | 45.66706 | 9.70200 | 787 ft | 0 kts | 105° |
| 2026-05-07 16:54 | 45.66704 | 9.70209 | 787 ft | 2 kts | 105° |
| 2026-05-07 16:55 | 45.66699 | 9.70237 | 787 ft | 4 kts | 105° |
| 2026-05-07 16:55 | 45.66690 | 9.70283 | 787 ft | 6 kts | 105° |
| 2026-05-07 16:55 | 45.66678 | 9.70348 | 787 ft | 8 kts | 105° |
| 2026-05-07 16:55 | 45.66662 | 9.70433 | 787 ft | 10 kts | 105° |
| 2026-05-07 16:56 | 45.66643 | 9.70536 | 787 ft | 12 kts | 104° |
| 2026-05-07 16:56 | 45.66621 | 9.70659 | 787 ft | 14 kts | 104° |
| 2026-05-07 16:56 | 45.66564 | 9.70964 | 787 ft | 18 kts | 105° |
| 2026-05-07 16:57 | 45.66524 | 9.71143 | 787 ft | 20 kts | 115° |
| 2026-05-07 16:57 | 45.66480 | 9.71342 | 787 ft | 22 kts | 104° |
| 2026-05-07 16:57 | 45.66440 | 9.71542 | 787 ft | 20 kts | 104° |
| 2026-05-07 16:57 | 45.66463 | 9.71743 | 787 ft | 22 kts | 73° |
| 2026-05-07 16:58 | 45.66455 | 9.71962 | 787 ft | 23 kts | 107° |
| 2026-05-07 16:58 | 45.66421 | 9.72144 | 787 ft | 16 kts | 105° |
| 2026-05-07 16:58 | 45.66390 | 9.72311 | 787 ft | 16 kts | 104° |
| 2026-05-07 16:58 | 45.66383 | 9.72347 | 787 ft | 0 kts | 104° |
| 2026-05-07 16:59 | 45.66382 | 9.72355 | 787 ft | 2 kts | 104° |
| 2026-05-07 16:59 | 45.66376 | 9.72392 | 787 ft | 6 kts | 104° |
| 2026-05-07 16:59 | 45.66375 | 9.72462 | 787 ft | 8 kts | 78° |
| 2026-05-07 17:00 | 45.66387 | 9.72549 | 787 ft | 10 kts | 76° |
| 2026-05-07 17:00 | 45.66437 | 9.72563 | 787 ft | 10 kts | 299° |
| 2026-05-07 17:00 | 45.66459 | 9.72436 | 787 ft | 28 kts | 283° |
| 2026-05-07 17:00 | 45.66575 | 9.71816 | 787 ft | 97 kts | 285° |
| 2026-05-07 17:01 | 45.66791 | 9.70639 | 787 ft | 145 kts | 284° |
| 2026-05-07 17:01 | 45.67080 | 9.69129 | 1163 ft | 156 kts | 284° |
| 2026-05-07 17:01 | 45.67279 | 9.67650 | 1832 ft | 153 kts | 258° |
| 2026-05-07 17:01 | 45.66788 | 9.66271 | 2233 ft | 168 kts | 224° |
| 2026-05-07 17:02 | 45.65901 | 9.65050 | 2689 ft | 182 kts | 224° |
| 2026-05-07 17:02 | 45.64994 | 9.63759 | 3298 ft | 185 kts | 225° |
| 2026-05-07 17:02 | 45.64091 | 9.62447 | 3910 ft | 186 kts | 226° |
| 2026-05-07 17:02 | 45.63178 | 9.61110 | 4498 ft | 190 kts | 226° |
| 2026-05-07 17:03 | 45.62255 | 9.59750 | 5102 ft | 191 kts | 226° |
| 2026-05-07 17:03 | 45.61319 | 9.58380 | 5756 ft | 197 kts | 226° |
| 2026-05-07 17:03 | 45.60299 | 9.56916 | 6017 ft | 220 kts | 225° |
| 2026-05-07 17:03 | 45.59162 | 9.55299 | 6461 ft | 237 kts | 226° |
| 2026-05-07 17:04 | 45.57982 | 9.53629 | 7218 ft | 241 kts | 224° |
| 2026-05-07 17:04 | 45.56584 | 9.52299 | 8013 ft | 246 kts | 202° |
| 2026-05-07 17:04 | 45.54901 | 9.51819 | 8812 ft | 251 kts | 180° |
| 2026-05-07 17:04 | 45.53182 | 9.52322 | 9615 ft | 256 kts | 159° |
| 2026-05-07 17:05 | 45.51534 | 9.53327 | 10373 ft | 260 kts | 158° |
| 2026-05-07 17:05 | 45.49859 | 9.54348 | 11100 ft | 263 kts | 159° |
| 2026-05-07 17:05 | 45.48166 | 9.55375 | 11825 ft | 267 kts | 159° |
| 2026-05-07 17:05 | 45.46439 | 9.56416 | 12439 ft | 277 kts | 160° |
| 2026-05-07 17:06 | 45.44615 | 9.57507 | 12670 ft | 299 kts | 160° |
| 2026-05-07 17:06 | 45.42617 | 9.58701 | 12844 ft | 323 kts | 160° |
| 2026-05-07 17:06 | 45.40475 | 9.59982 | 12981 ft | 346 kts | 159° |
| 2026-05-07 17:06 | 45.38186 | 9.61305 | 13221 ft | 361 kts | 164° |
| 2026-05-07 17:07 | 45.35723 | 9.62079 | 13784 ft | 365 kts | 176° |
| 2026-05-07 17:07 | 45.33182 | 9.62144 | 14352 ft | 367 kts | 184° |
| 2026-05-07 17:07 | 45.30623 | 9.62066 | 14936 ft | 370 kts | 184° |
| 2026-05-07 17:07 | 45.28042 | 9.61987 | 15526 ft | 372 kts | 184° |
| 2026-05-07 17:08 | 45.25442 | 9.61911 | 16100 ft | 375 kts | 184° |
| 2026-05-07 17:08 | 45.22821 | 9.61831 | 16670 ft | 378 kts | 184° |
| 2026-05-07 17:08 | 45.20179 | 9.61747 | 17249 ft | 381 kts | 184° |
| 2026-05-07 17:08 | 45.17516 | 9.61663 | 17848 ft | 384 kts | 184° |
| 2026-05-07 17:09 | 45.14845 | 9.61417 | 18376 ft | 385 kts | 193° |
| 2026-05-07 17:09 | 45.12297 | 9.60311 | 18885 ft | 383 kts | 207° |
| 2026-05-07 17:09 | 45.10039 | 9.58337 | 19406 ft | 381 kts | 222° |
| 2026-05-07 17:09 | 45.08221 | 9.55628 | 19960 ft | 380 kts | 236° |
| 2026-05-07 17:10 | 45.06956 | 9.52368 | 20514 ft | 379 kts | 250° |
| 2026-05-07 17:10 | 45.06213 | 9.48788 | 21043 ft | 380 kts | 256° |
| 2026-05-07 17:10 | 45.05546 | 9.45172 | 21560 ft | 382 kts | 256° |
| 2026-05-07 17:10 | 45.04872 | 9.41527 | 22069 ft | 383 kts | 256° |
| 2026-05-07 17:11 | 45.04191 | 9.37873 | 22573 ft | 385 kts | 256° |
| 2026-05-07 17:11 | 45.03503 | 9.34209 | 23077 ft | 387 kts | 256° |
| 2026-05-07 17:11 | 45.02807 | 9.30519 | 23569 ft | 389 kts | 256° |
| 2026-05-07 17:11 | 45.02108 | 9.26822 | 23981 ft | 391 kts | 256° |
| 2026-05-07 17:12 | 45.01406 | 9.23104 | 24397 ft | 392 kts | 256° |
| 2026-05-07 17:12 | 45.00703 | 9.19374 | 24795 ft | 394 kts | 256° |
| 2026-05-07 17:12 | 44.99997 | 9.15626 | 25185 ft | 395 kts | 256° |
| 2026-05-07 17:12 | 44.99289 | 9.11866 | 25584 ft | 397 kts | 256° |
| 2026-05-07 17:13 | 44.98575 | 9.08097 | 25991 ft | 398 kts | 255° |
| 2026-05-07 17:13 | 44.97855 | 9.04321 | 26412 ft | 399 kts | 255° |
| 2026-05-07 17:13 | 44.97114 | 9.00544 | 26833 ft | 400 kts | 252° |
| 2026-05-07 17:13 | 44.96032 | 8.96919 | 27246 ft | 402 kts | 243° |
| 2026-05-07 17:14 | 44.94508 | 8.93593 | 27652 ft | 406 kts | 234° |
| 2026-05-07 17:14 | 44.92727 | 8.90490 | 28053 ft | 408 kts | 233° |
| 2026-05-07 17:14 | 44.90939 | 8.87380 | 28449 ft | 409 kts | 233° |
| 2026-05-07 17:14 | 44.89147 | 8.84258 | 28832 ft | 410 kts | 233° |
| 2026-05-07 17:15 | 44.87354 | 8.81128 | 29220 ft | 411 kts | 233° |
| 2026-05-07 17:15 | 44.85552 | 8.77988 | 29621 ft | 412 kts | 233° |
| 2026-05-07 17:15 | 44.83755 | 8.74859 | 30169 ft | 410 kts | 233° |
| 2026-05-07 17:15 | 44.81967 | 8.71751 | 30656 ft | 407 kts | 233° |
| 2026-05-07 17:16 | 44.80174 | 8.68637 | 30844 ft | 412 kts | 233° |
| 2026-05-07 17:16 | 44.78357 | 8.65482 | 31004 ft | 417 kts | 233° |
| 2026-05-07 17:16 | 44.76523 | 8.62300 | 31326 ft | 418 kts | 233° |
| 2026-05-07 17:16 | 44.74691 | 8.59131 | 31739 ft | 417 kts | 233° |
| 2026-05-07 17:17 | 44.72863 | 8.55977 | 32188 ft | 415 kts | 233° |
| 2026-05-07 17:17 | 44.71041 | 8.52838 | 32647 ft | 413 kts | 233° |
| 2026-05-07 17:17 | 44.69230 | 8.49722 | 33083 ft | 411 kts | 233° |
| 2026-05-07 17:17 | 44.67424 | 8.46616 | 33535 ft | 409 kts | 233° |
| 2026-05-07 17:18 | 44.65633 | 8.43532 | 34067 ft | 406 kts | 233° |
| 2026-05-07 17:18 | 44.63852 | 8.40470 | 34462 ft | 404 kts | 233° |
| 2026-05-07 17:18 | 44.62076 | 8.37417 | 34785 ft | 404 kts | 233° |
| 2026-05-07 17:18 | 44.60295 | 8.34359 | 34949 ft | 405 kts | 233° |
| 2026-05-07 17:19 | 44.56755 | 8.28293 | 34981 ft | 405 kts | 233° |
| 2026-05-07 17:19 | 44.53183 | 8.22191 | 34985 ft | 404 kts | 233° |
| 2026-05-07 17:20 | 44.49610 | 8.16109 | 34983 ft | 404 kts | 233° |
| 2026-05-07 17:20 | 44.46039 | 8.10031 | 34983 ft | 404 kts | 233° |
| 2026-05-07 17:21 | 44.42462 | 8.03968 | 34982 ft | 404 kts | 233° |
| 2026-05-07 17:21 | 44.38881 | 7.97902 | 34985 ft | 404 kts | 233° |
| 2026-05-07 17:22 | 44.35304 | 7.91838 | 34984 ft | 405 kts | 233° |
| 2026-05-07 17:22 | 44.31720 | 7.85784 | 34977 ft | 404 kts | 233° |
| 2026-05-07 17:23 | 44.28122 | 7.79747 | 34991 ft | 404 kts | 232° |
| 2026-05-07 17:23 | 44.24089 | 7.74258 | 34998 ft | 406 kts | 225° |
| 2026-05-07 17:24 | 44.19853 | 7.69041 | 34995 ft | 407 kts | 225° |
| 2026-05-07 17:24 | 44.15605 | 7.63828 | 34977 ft | 407 kts | 225° |
| 2026-05-07 17:25 | 44.11797 | 7.58108 | 35008 ft | 402 kts | 231° |
| 2026-05-07 17:25 | 44.08129 | 7.52228 | 35010 ft | 402 kts | 231° |
| 2026-05-07 17:26 | 44.04459 | 7.46368 | 35009 ft | 402 kts | 232° |
| 2026-05-07 17:26 | 44.00791 | 7.40522 | 35008 ft | 401 kts | 231° |
| 2026-05-07 17:27 | 43.97740 | 7.35669 | 34991 ft | 401 kts | 231° |
| 2026-05-07 17:27 | 43.94076 | 7.29859 | 35008 ft | 399 kts | 231° |
| 2026-05-07 17:28 | 43.90423 | 7.24067 | 35004 ft | 398 kts | 231° |
| 2026-05-07 17:28 | 43.86775 | 7.18292 | 35007 ft | 398 kts | 231° |
| 2026-05-07 17:29 | 43.83123 | 7.12526 | 35002 ft | 397 kts | 231° |
| 2026-05-07 17:29 | 43.79474 | 7.06774 | 34996 ft | 397 kts | 231° |
| 2026-05-07 17:30 | 43.75831 | 7.01038 | 35004 ft | 397 kts | 231° |
| 2026-05-07 17:30 | 43.72371 | 6.95135 | 34998 ft | 393 kts | 240° |
| 2026-05-07 17:31 | 43.70128 | 6.88284 | 34987 ft | 392 kts | 248° |
| 2026-05-07 17:31 | 43.68079 | 6.81307 | 34985 ft | 392 kts | 248° |
| 2026-05-07 17:32 | 43.66018 | 6.74337 | 34974 ft | 392 kts | 248° |
| 2026-05-07 17:32 | 43.63960 | 6.67406 | 34966 ft | 393 kts | 248° |
| 2026-05-07 17:33 | 43.61878 | 6.60390 | 34953 ft | 392 kts | 247° |
| 2026-05-07 17:33 | 43.59825 | 6.53466 | 34955 ft | 393 kts | 247° |
| 2026-05-07 17:34 | 43.57747 | 6.46497 | 34970 ft | 393 kts | 247° |
| 2026-05-07 17:34 | 43.55661 | 6.39535 | 34965 ft | 393 kts | 247° |
| 2026-05-07 17:35 | 43.53574 | 6.32578 | 34959 ft | 393 kts | 247° |
| 2026-05-07 17:35 | 43.51476 | 6.25622 | 34958 ft | 393 kts | 247° |
| 2026-05-07 17:36 | 43.49373 | 6.18666 | 34957 ft | 393 kts | 247° |
| 2026-05-07 17:36 | 43.47272 | 6.11714 | 34958 ft | 393 kts | 247° |
| 2026-05-07 17:37 | 43.45163 | 6.04762 | 34954 ft | 394 kts | 246° |
| 2026-05-07 17:37 | 43.41135 | 5.91502 | 34972 ft | 395 kts | 246° |
| 2026-05-07 17:38 | 43.32582 | 5.63663 | 34980 ft | 396 kts | 246° |
| 2026-05-07 17:38 | 43.23890 | 5.35883 | 34946 ft | 396 kts | 240° |
| 2026-05-07 17:39 | 43.16182 | 5.25183 | 34963 ft | 398 kts | 223° |
| 2026-05-07 17:39 | 43.07775 | 5.15261 | 35223 ft | 401 kts | 222° |
| 2026-05-07 17:39 | 42.99291 | 5.05357 | 36572 ft | 402 kts | 222° |
| 2026-05-07 17:39 | 42.90720 | 4.95425 | 36930 ft | 401 kts | 221° |
| 2026-05-07 17:40 | 42.73640 | 4.75700 | 36947 ft | 405 kts | 221° |
| 2026-05-07 17:40 | 42.56521 | 4.56065 | 37029 ft | 402 kts | 221° |
| 2026-05-07 17:41 | 42.39351 | 4.36535 | 36921 ft | 403 kts | 221° |
| 2026-05-07 17:41 | 42.22210 | 4.17157 | 36948 ft | 400 kts | 221° |
| 2026-05-07 17:42 | 42.13172 | 4.08599 | 37006 ft | 398 kts | 210° |
| 2026-05-07 17:42 | 42.03452 | 4.01460 | 36988 ft | 397 kts | 211° |
| 2026-05-07 17:42 | 41.83880 | 3.87588 | 36985 ft | 398 kts | 208° |
| 2026-05-07 17:43 | 41.64039 | 3.74334 | 36984 ft | 399 kts | 209° |
| 2026-05-07 17:43 | 41.44112 | 3.61082 | 36978 ft | 401 kts | 209° |
| 2026-05-07 17:44 | 41.24111 | 3.47870 | 36983 ft | 401 kts | 208° |
| 2026-05-07 17:44 | 41.13778 | 3.42901 | 36993 ft | 406 kts | 194° |
| 2026-05-07 17:44 | 41.02686 | 3.39968 | 36974 ft | 406 kts | 195° |
| 2026-05-07 17:45 | 40.80510 | 3.34144 | 36971 ft | 406 kts | 195° |
| 2026-05-07 17:45 | 40.58341 | 3.28375 | 36975 ft | 406 kts | 195° |
| 2026-05-07 17:46 | 40.36146 | 3.22615 | 36952 ft | 406 kts | 195° |
| 2026-05-07 17:46 | 40.13920 | 3.16899 | 36960 ft | 407 kts | 195° |
| 2026-05-07 17:47 | 39.91804 | 3.10708 | 36933 ft | 401 kts | 207° |
| 2026-05-07 17:47 | 39.72384 | 2.96659 | 36928 ft | 401 kts | 211° |
| 2026-05-07 17:48 | 39.52822 | 2.82526 | 36944 ft | 403 kts | 211° |
| 2026-05-07 17:48 | 39.46731 | 2.78145 | 36608 ft | 402 kts | 213° |
| 2026-05-07 17:49 | 39.44414 | 2.76134 | 36357 ft | 400 kts | 219° |
| 2026-05-07 17:49 | 39.42336 | 2.73755 | 36097 ft | 399 kts | 226° |
| 2026-05-07 17:49 | 39.39017 | 2.68646 | 35633 ft | 400 kts | 231° |
| 2026-05-07 17:49 | 39.36644 | 2.64874 | 35333 ft | 401 kts | 230° |
| 2026-05-07 17:50 | 39.34879 | 2.62085 | 35084 ft | 402 kts | 230° |
| 2026-05-07 17:50 | 39.33107 | 2.59288 | 34844 ft | 402 kts | 230° |
| 2026-05-07 17:50 | 39.31334 | 2.56488 | 34586 ft | 403 kts | 230° |
| 2026-05-07 17:50 | 39.29554 | 2.53680 | 34325 ft | 405 kts | 230° |
| 2026-05-07 17:51 | 39.27764 | 2.50856 | 33489 ft | 410 kts | 230° |
| 2026-05-07 17:51 | 39.25949 | 2.47994 | 32570 ft | 414 kts | 229° |
| 2026-05-07 17:51 | 39.24120 | 2.45110 | 31676 ft | 417 kts | 229° |
| 2026-05-07 17:51 | 39.22271 | 2.42195 | 30754 ft | 422 kts | 228° |
| 2026-05-07 17:52 | 39.20399 | 2.39246 | 29660 ft | 429 kts | 228° |
| 2026-05-07 17:52 | 39.18495 | 2.36254 | 28514 ft | 434 kts | 228° |
| 2026-05-07 17:52 | 39.16574 | 2.33231 | 27460 ft | 437 kts | 229° |
| 2026-05-07 17:52 | 39.14667 | 2.30226 | 26852 ft | 430 kts | 229° |
| 2026-05-07 17:53 | 39.12785 | 2.27264 | 26129 ft | 426 kts | 229° |
| 2026-05-07 17:53 | 39.10910 | 2.24324 | 25388 ft | 422 kts | 229° |
| 2026-05-07 17:53 | 39.09051 | 2.21412 | 24677 ft | 420 kts | 230° |
| 2026-05-07 17:53 | 39.07199 | 2.18518 | 23970 ft | 418 kts | 230° |
| 2026-05-07 17:54 | 39.05354 | 2.15640 | 23224 ft | 416 kts | 230° |
| 2026-05-07 17:54 | 39.03524 | 2.12788 | 22499 ft | 412 kts | 230° |
| 2026-05-07 17:54 | 39.01710 | 2.09962 | 21812 ft | 407 kts | 229° |
| 2026-05-07 17:54 | 38.99920 | 2.07170 | 21134 ft | 402 kts | 229° |
| 2026-05-07 17:55 | 38.98153 | 2.04409 | 20493 ft | 398 kts | 229° |
| 2026-05-07 17:55 | 38.96398 | 2.01671 | 19863 ft | 395 kts | 229° |
| 2026-05-07 17:55 | 38.94653 | 1.98963 | 19266 ft | 392 kts | 229° |
| 2026-05-07 17:55 | 38.92919 | 1.96276 | 18686 ft | 389 kts | 229° |
| 2026-05-07 17:56 | 38.91379 | 1.93440 | 18099 ft | 388 kts | 238° |
| 2026-05-07 17:56 | 38.90254 | 1.90289 | 17517 ft | 388 kts | 248° |
| 2026-05-07 17:56 | 38.89520 | 1.86962 | 16955 ft | 386 kts | 252° |
| 2026-05-07 17:56 | 38.88848 | 1.83654 | 16395 ft | 382 kts | 252° |
| 2026-05-07 17:57 | 38.88173 | 1.80372 | 15821 ft | 378 kts | 252° |
| 2026-05-07 17:57 | 38.87728 | 1.78221 | 15433 ft | 376 kts | 253° |
| 2026-05-07 17:57 | 38.86838 | 1.73911 | 14664 ft | 371 kts | 253° |
| 2026-05-07 17:57 | 38.86178 | 1.70722 | 14073 ft | 369 kts | 253° |
| 2026-05-07 17:58 | 38.85519 | 1.67557 | 13448 ft | 367 kts | 253° |
| 2026-05-07 17:58 | 38.84865 | 1.64411 | 12812 ft | 363 kts | 253° |
| 2026-05-07 17:58 | 38.84220 | 1.61291 | 12233 ft | 360 kts | 253° |
| 2026-05-07 17:58 | 38.83580 | 1.58202 | 11637 ft | 357 kts | 253° |
| 2026-05-07 17:59 | 38.82923 | 1.55145 | 11057 ft | 354 kts | 252° |
| 2026-05-07 17:59 | 38.82256 | 1.52141 | 10695 ft | 341 kts | 252° |
| 2026-05-07 17:59 | 38.81626 | 1.49339 | 10582 ft | 314 kts | 252° |
| 2026-05-07 17:59 | 38.81038 | 1.46716 | 10224 ft | 301 kts | 252° |
| 2026-05-07 18:00 | 38.80459 | 1.44180 | 9938 ft | 294 kts | 250° |
| 2026-05-07 18:00 | 38.79678 | 1.41775 | 9778 ft | 293 kts | 241° |
| 2026-05-07 18:00 | 38.78718 | 1.39466 | 9646 ft | 294 kts | 240° |
| 2026-05-07 18:00 | 38.77756 | 1.37149 | 9514 ft | 294 kts | 240° |
| 2026-05-07 18:01 | 38.76801 | 1.34843 | 9389 ft | 293 kts | 241° |
| 2026-05-07 18:01 | 38.75849 | 1.32538 | 9252 ft | 292 kts | 241° |
| 2026-05-07 18:01 | 38.74897 | 1.30238 | 8854 ft | 293 kts | 241° |
| 2026-05-07 18:01 | 38.73951 | 1.27952 | 8658 ft | 287 kts | 241° |
| 2026-05-07 18:02 | 38.72067 | 1.23415 | 7816 ft | 291 kts | 241° |
| 2026-05-07 18:02 | 38.71111 | 1.21124 | 7404 ft | 291 kts | 241° |
| 2026-05-07 18:02 | 38.70173 | 1.18881 | 6998 ft | 281 kts | 241° |
| 2026-05-07 18:03 | 38.69266 | 1.16713 | 6610 ft | 272 kts | 242° |
| 2026-05-07 18:03 | 38.68385 | 1.14606 | 6225 ft | 265 kts | 242° |
| 2026-05-07 18:03 | 38.67529 | 1.12560 | 5895 ft | 255 kts | 243° |
| 2026-05-07 18:03 | 38.66710 | 1.10607 | 5823 ft | 248 kts | 244° |
| 2026-05-07 18:04 | 38.65896 | 1.08662 | 5764 ft | 247 kts | 243° |
| 2026-05-07 18:04 | 38.65088 | 1.06731 | 5714 ft | 245 kts | 244° |
| 2026-05-07 18:04 | 38.64483 | 1.04714 | 5671 ft | 242 kts | 258° |
| 2026-05-07 18:04 | 38.64196 | 1.02606 | 5617 ft | 241 kts | 262° |
| 2026-05-07 18:05 | 38.63945 | 1.00489 | 5563 ft | 240 kts | 266° |
| 2026-05-07 18:05 | 38.64136 | 0.98403 | 5508 ft | 237 kts | 291° |
| 2026-05-07 18:05 | 38.64987 | 0.96628 | 5450 ft | 234 kts | 316° |
| 2026-05-07 18:05 | 38.66280 | 0.95476 | 5403 ft | 221 kts | 335° |
| 2026-05-07 18:06 | 38.67664 | 0.94808 | 5346 ft | 207 kts | 356° |
| 2026-05-07 18:06 | 38.69023 | 0.95046 | 5293 ft | 192 kts | 25° |
| 2026-05-07 18:06 | 38.70065 | 0.96034 | 5282 ft | 186 kts | 50° |
| 2026-05-07 18:06 | 38.70733 | 0.97446 | 5243 ft | 185 kts | 59° |
| 2026-05-07 18:07 | 38.71360 | 0.98890 | 5194 ft | 186 kts | 59° |
| 2026-05-07 18:07 | 38.71991 | 1.00340 | 5151 ft | 186 kts | 59° |
| 2026-05-07 18:07 | 38.72581 | 1.01737 | 5088 ft | 171 kts | 60° |
| 2026-05-07 18:07 | 38.73121 | 1.03055 | 5043 ft | 165 kts | 59° |
| 2026-05-07 18:08 | 38.73646 | 1.04339 | 4913 ft | 165 kts | 59° |
| 2026-05-07 18:08 | 38.74177 | 1.05635 | 4750 ft | 164 kts | 60° |
| 2026-05-07 18:08 | 38.74707 | 1.06928 | 4566 ft | 163 kts | 61° |
| 2026-05-07 18:08 | 38.75232 | 1.08209 | 4359 ft | 162 kts | 60° |
| 2026-05-07 18:09 | 38.75755 | 1.09485 | 4196 ft | 163 kts | 59° |
| 2026-05-07 18:09 | 38.76279 | 1.10763 | 4003 ft | 161 kts | 60° |
| 2026-05-07 18:09 | 38.76801 | 1.12038 | 3830 ft | 161 kts | 60° |
| 2026-05-07 18:09 | 38.77315 | 1.13309 | 3639 ft | 160 kts | 60° |
| 2026-05-07 18:10 | 38.77830 | 1.14562 | 3540 ft | 159 kts | 60° |
| 2026-05-07 18:10 | 38.78352 | 1.15820 | 3422 ft | 161 kts | 58° |
| 2026-05-07 18:10 | 38.78877 | 1.17081 | 3248 ft | 159 kts | 57° |
| 2026-05-07 18:10 | 38.79397 | 1.18329 | 3046 ft | 159 kts | 57° |
| 2026-05-07 18:11 | 38.79915 | 1.19573 | 2839 ft | 161 kts | 58° |
| 2026-05-07 18:11 | 38.80282 | 1.20450 | 2697 ft | 173 kts | 58° |
| 2026-05-07 18:11 | 38.80855 | 1.21826 | 2460 ft | 176 kts | 58° |
| 2026-05-07 18:11 | 38.81429 | 1.23209 | 2212 ft | 175 kts | 58° |
| 2026-05-07 18:12 | 38.82000 | 1.24582 | 1983 ft | 174 kts | 58° |
| 2026-05-07 18:12 | 38.82571 | 1.25954 | 1745 ft | 174 kts | 58° |
| 2026-05-07 18:12 | 38.83141 | 1.27325 | 1512 ft | 174 kts | 58° |
| 2026-05-07 18:12 | 38.83704 | 1.28682 | 1290 ft | 167 kts | 57° |
| 2026-05-07 18:13 | 38.84211 | 1.29908 | 1073 ft | 144 kts | 57° |
| 2026-05-07 18:13 | 38.84672 | 1.31017 | 889 ft | 135 kts | 57° |
| 2026-05-07 18:13 | 38.85097 | 1.32041 | 729 ft | 130 kts | 59° |
| 2026-05-07 18:13 | 38.85522 | 1.33052 | 567 ft | 130 kts | 57° |
| 2026-05-07 18:14 | 38.85939 | 1.34088 | 387 ft | 133 kts | 58° |
| 2026-05-07 18:14 | 38.86375 | 1.35104 | 212 ft | 127 kts | 58° |
| 2026-05-07 18:14 | 38.86782 | 1.36101 | 29 ft | 125 kts | 60° |
| 2026-05-07 18:14 | 38.87147 | 1.36984 | 11 ft | 96 kts | 62° |
| 2026-05-07 18:15 | 38.87380 | 1.37543 | 11 ft | 47 kts | 62° |
| 2026-05-07 18:15 | 38.87484 | 1.37777 | 11 ft | 20 kts | 46° |
| 2026-05-07 18:15 | 38.87601 | 1.37871 | 10 ft | 18 kts | 32° |
| 2026-05-07 18:15 | 38.87687 | 1.37909 | 9 ft | 13 kts | 329° |
| 2026-05-07 18:16 | 38.87674 | 1.37799 | 10 ft | 15 kts | 239° |
| 2026-05-07 18:16 | 38.87621 | 1.37673 | 10 ft | 17 kts | 243° |
| 2026-05-07 18:16 | 38.87559 | 1.37527 | 9 ft | 20 kts | 240° |
| 2026-05-07 18:16 | 38.87504 | 1.37394 | 10 ft | 17 kts | 242° |
| 2026-05-07 18:17 | 38.87449 | 1.37261 | 9 ft | 14 kts | 244° |
| 2026-05-07 18:17 | 38.87411 | 1.37169 | 9 ft | 9 kts | 241° |
| 2026-05-07 18:17 | 38.87391 | 1.37121 | 10 ft | 6 kts | 241° |
| 2026-05-07 18:17 | 38.87370 | 1.37067 | 11 ft | 2 kts | 253° |
| 2026-05-07 18:18 | 38.87379 | 1.37050 | 9 ft | 3 kts | 329° |
| 2026-05-07 18:18 | 38.87410 | 1.37032 | 9 ft | 6 kts | 333° |
| 2026-05-07 18:18 | 38.87437 | 1.37014 | 9 ft | 3 kts | 332° |
| 2026-05-07 18:18 | 38.87452 | 1.37004 | 9 ft | 2 kts | 332° |
| 2026-05-07 18:19 | 38.87458 | 1.37000 | 9 ft | 0 kts | 332° |